ADDS METAR Data

Data at: 0043 UTC 21 Nov 2017

METAR for:KPHX (Phoenix/Sky Harbor, AZ, US)
Text:KPHX 202351Z 21003KT 10SM SCT200 OVC250 25/M04 A2994 RMK AO2 SLP128 T02501039 10261 20217 58014
Temperature: 25.0°C ( 77°F)
Dewpoint: -3.9°C ( 25°F) [RH = 14%]
Pressure (altimeter):29.94 inches Hg (1014.0 mb) [Sea level pressure: 1012.8 mb]
Winds:from the SSW (210 degrees) at 3 MPH (3 knots; 1.5 m/s)
Visibility:10 or more sm (16+ km)
Ceiling:25000 feet AGL
Clouds: scattered clouds at 20000 feet AGL, overcast cloud deck at 25000 feet AGL